createdAt,value
2018-05-03T00:00:05.624Z,11.87
2018-05-03T00:02:32.886Z,11.97
2018-05-03T00:05:00.187Z,12.43
2018-05-03T00:07:27.464Z,9.67
2018-05-03T00:09:54.741Z,10.13
2018-05-03T00:12:22.011Z,7.83
2018-05-03T00:14:49.277Z,8.67
2018-05-03T00:17:16.551Z,12.53
2018-05-03T00:19:43.834Z,12.20
2018-05-03T00:22:11.114Z,12.23
2018-05-03T00:24:38.395Z,8.10
2018-05-03T00:27:05.656Z,10.17
2018-05-03T00:29:32.943Z,8.70
2018-05-03T00:32:00.223Z,9.83
2018-05-03T00:34:27.505Z,10.70
2018-05-03T00:36:54.770Z,9.27
2018-05-03T00:39:22.051Z,7.53
2018-05-03T00:41:49.347Z,17.63
2018-05-03T00:44:16.600Z,13.23
2018-05-03T00:46:43.881Z,8.70
2018-05-03T00:49:11.153Z,28.10
2018-05-03T00:51:38.449Z,8.87
2018-05-03T00:54:05.709Z,10.13
2018-05-03T00:56:32.997Z,12.80
2018-05-03T00:59:00.284Z,9.40
2018-05-03T01:01:27.550Z,8.90
2018-05-03T01:03:54.840Z,12.17
2018-05-03T01:06:22.104Z,9.67
2018-05-03T01:08:49.390Z,16.17
2018-05-03T01:11:16.657Z,9.77
2018-05-03T01:13:44.328Z,8.57
2018-05-03T01:16:11.601Z,9.03
2018-05-03T01:18:38.868Z,11.30
2018-05-03T01:21:06.145Z,10.63
2018-05-03T01:23:33.412Z,10.43
2018-05-03T01:26:00.702Z,8.60
2018-05-03T01:28:28.089Z,12.73
2018-05-03T01:30:55.360Z,10.83
2018-05-03T01:33:22.627Z,8.40
2018-05-03T01:35:55.676Z,10.07
2018-05-03T01:38:23.064Z,19.17
2018-05-03T01:40:50.267Z,8.83
2018-05-03T01:43:17.549Z,9.60
2018-05-03T01:45:44.869Z,10.37
2018-05-03T01:48:12.157Z,8.40
2018-05-03T01:50:39.436Z,12.40
2018-05-03T01:53:06.714Z,9.60
2018-05-03T01:55:33.984Z,11.87
2018-05-03T01:58:01.278Z,8.90
2018-05-03T02:00:28.567Z,13.13
2018-05-03T02:02:55.833Z,19.27
2018-05-03T02:05:23.119Z,9.60
2018-05-03T02:07:50.374Z,8.57
2018-05-03T02:10:17.657Z,14.47
2018-05-03T02:12:44.988Z,11.70
2018-05-03T02:15:12.266Z,11.90
2018-05-03T02:17:39.562Z,14.90
2018-05-03T02:20:06.820Z,14.90
2018-05-03T02:22:34.110Z,10.90
2018-05-03T02:25:01.394Z,11.27
2018-05-03T02:27:28.674Z,14.60
2018-05-03T02:29:56.884Z,21.53
2018-05-03T02:32:24.177Z,10.43
2018-05-03T02:34:51.473Z,17.67
2018-05-03T02:37:20.017Z,10.80
2018-05-03T02:39:48.028Z,9.33
2018-05-03T02:42:17.212Z,14.50
2018-05-03T02:44:47.717Z,11.33
2018-05-03T02:47:18.690Z,8.53
2018-05-03T02:49:48.769Z,15.17
2018-05-03T02:52:17.180Z,9.17
2018-05-03T02:54:44.435Z,12.97
2018-05-03T02:57:17.572Z,13.30
2018-05-03T02:59:50.566Z,10.57
2018-05-03T03:02:23.425Z,14.63
2018-05-03T03:05:02.234Z,13.20
2018-05-03T03:07:35.188Z,11.50
2018-05-03T03:10:23.107Z,10.40
2018-05-03T03:13:01.953Z,15.20
2018-05-03T03:15:42.694Z,11.33
2018-05-03T03:18:15.749Z,8.77
2018-05-03T03:20:54.530Z,11.93
2018-05-03T03:23:33.601Z,8.97
2018-05-03T03:26:14.170Z,8.40
2018-05-03T03:28:53.143Z,7.87
2018-05-03T03:31:32.102Z,11.33
2018-05-03T03:34:19.794Z,11.30
2018-05-03T03:37:05.796Z,7.93
2018-05-03T03:39:38.950Z,9.77
2018-05-03T03:42:12.017Z,12.53
2018-05-03T03:44:45.886Z,12.30
2018-05-03T03:47:13.161Z,9.77
2018-05-03T03:49:40.425Z,13.73
2018-05-03T03:52:07.713Z,10.47
2018-05-03T03:54:34.993Z,8.50
2018-05-03T03:57:02.288Z,12.90
2018-05-03T03:59:29.565Z,18.10
2018-05-03T04:01:56.858Z,11.30
2018-05-03T04:04:24.143Z,11.03
2018-05-03T04:06:51.423Z,12.30
2018-05-03T04:09:19.012Z,17.50
2018-05-03T04:11:46.249Z,9.80
2018-05-03T04:14:13.543Z,7.80
2018-05-03T04:16:40.821Z,8.13
2018-05-03T04:19:13.914Z,16.77
2018-05-03T04:21:46.909Z,23.87
2018-05-03T04:24:19.898Z,15.40
2018-05-03T04:26:47.201Z,13.03
2018-05-03T04:29:14.477Z,12.47
2018-05-03T04:31:41.763Z,12.33
2018-05-03T04:34:09.026Z,10.40
2018-05-03T04:36:37.110Z,7.33
2018-05-03T04:39:05.133Z,9.70
2018-05-03T04:41:32.413Z,9.13
2018-05-03T04:43:59.700Z,8.77
2018-05-03T04:46:26.971Z,13.10
2018-05-03T04:48:54.275Z,14.23
2018-05-03T04:51:21.536Z,10.03
2018-05-03T04:53:48.813Z,12.40
2018-05-03T04:56:16.097Z,12.23
2018-05-03T04:58:43.405Z,14.07
2018-05-03T05:01:10.699Z,13.70
2018-05-03T05:03:37.953Z,10.20
2018-05-03T05:06:06.167Z,13.97
2018-05-03T05:08:33.443Z,12.37
2018-05-03T05:11:00.736Z,9.63
2018-05-03T05:13:28.018Z,10.73
2018-05-03T05:15:55.742Z,12.80
2018-05-03T05:18:23.002Z,9.13
2018-05-03T05:20:50.278Z,13.70
2018-05-03T05:23:18.011Z,11.20
2018-05-03T05:25:45.285Z,11.77
2018-05-03T05:28:12.568Z,12.43
2018-05-03T05:30:39.894Z,9.47
2018-05-03T05:33:07.132Z,10.10
2018-05-03T05:35:34.421Z,12.50
2018-05-03T05:38:01.710Z,11.40
2018-05-03T05:40:29.006Z,9.17
2018-05-03T05:42:58.146Z,15.43
2018-05-03T05:45:25.525Z,13.53
2018-05-03T05:47:52.809Z,12.93
2018-05-03T05:50:20.086Z,8.13
2018-05-03T05:52:47.401Z,12.90
2018-05-03T05:55:14.697Z,10.80
2018-05-03T05:57:41.962Z,8.63
2018-05-03T06:00:09.236Z,11.53
2018-05-03T06:02:36.514Z,9.93
2018-05-03T06:05:03.897Z,12.50
2018-05-03T06:07:31.185Z,16.93
2018-05-03T06:09:58.503Z,13.53
2018-05-03T06:12:25.866Z,14.03
2018-05-03T06:14:53.460Z,29.20
2018-05-03T06:17:20.741Z,17.37
2018-05-03T06:19:48.025Z,17.97
2018-05-03T06:22:15.311Z,7.80
2018-05-03T06:24:42.585Z,10.23
2018-05-03T06:27:09.859Z,8.80
2018-05-03T06:29:38.058Z,9.60
2018-05-03T06:32:05.345Z,16.67
2018-05-03T06:34:32.633Z,17.67
2018-05-03T06:36:59.937Z,14.50
2018-05-03T06:39:27.186Z,11.57
2018-05-03T06:41:54.461Z,8.30
2018-05-03T06:44:21.744Z,10.87
2018-05-03T06:46:49.048Z,17.10
2018-05-03T06:49:16.330Z,10.07
2018-05-03T06:51:43.677Z,9.87
2018-05-03T06:54:10.913Z,9.03
2018-05-03T06:56:38.178Z,11.50
2018-05-03T06:59:05.461Z,12.40
2018-05-03T07:01:33.782Z,14.23
2018-05-03T07:04:01.099Z,15.47
2018-05-03T07:06:28.359Z,11.43
2018-05-03T07:08:56.296Z,11.57
2018-05-03T07:11:23.613Z,14.23
2018-05-03T07:13:50.823Z,10.03
2018-05-03T07:16:18.237Z,11.50
2018-05-03T07:18:45.778Z,12.03
2018-05-03T07:21:13.867Z,12.10
2018-05-03T07:23:41.146Z,10.67
2018-05-03T07:26:08.447Z,10.17
2018-05-03T07:28:35.749Z,12.33
2018-05-03T07:31:03.042Z,14.83
2018-05-03T07:33:30.384Z,10.03
2018-05-03T07:35:57.663Z,11.90
2018-05-03T07:38:24.945Z,12.23
2018-05-03T07:40:52.316Z,9.60
2018-05-03T07:43:19.510Z,11.63
2018-05-03T07:45:50.952Z,10.60
2018-05-03T07:50:53.215Z,11.93
2018-05-03T07:53:21.590Z,16.60
2018-05-03T07:55:49.003Z,15.70
2018-05-03T07:58:16.853Z,9.10
2018-05-03T08:00:44.839Z,11.47
2018-05-03T08:05:44.170Z,9.63
2018-05-03T08:08:11.532Z,15.57
2018-05-03T08:10:38.916Z,9.00
2018-05-03T08:13:06.385Z,15.43
2018-05-03T08:18:05.286Z,9.37
2018-05-03T08:20:32.747Z,12.40
2018-05-03T08:23:00.263Z,7.40
2018-05-03T08:25:27.611Z,16.13
2018-05-03T08:27:54.991Z,10.20
2018-05-03T08:30:22.366Z,15.70
2018-05-03T08:32:50.609Z,13.17
2018-05-03T08:35:21.446Z,10.60
2018-05-03T08:37:49.078Z,10.40
2018-05-03T08:40:16.474Z,11.53
2018-05-03T08:42:43.995Z,14.80
2018-05-03T08:45:11.277Z,10.70
2018-05-03T08:47:38.854Z,18.13
2018-05-03T08:50:06.242Z,11.50
2018-05-03T08:52:34.493Z,12.87
2018-05-03T08:55:02.730Z,9.73
2018-05-03T08:57:30.147Z,18.93
2018-05-03T08:59:58.039Z,18.10
2018-05-03T09:02:27.142Z,11.97
2018-05-03T09:04:54.486Z,11.80
2018-05-03T09:07:21.914Z,11.50
2018-05-03T09:09:49.371Z,13.13
2018-05-03T09:12:16.980Z,17.60
2018-05-03T09:14:45.201Z,14.80
2018-05-03T09:17:14.407Z,8.50
2018-05-03T09:19:42.314Z,10.90
2018-05-03T09:22:09.636Z,15.33
2018-05-03T09:24:38.001Z,10.07
2018-05-03T09:27:07.255Z,12.40
2018-05-03T09:29:40.628Z,11.70
2018-05-03T09:32:08.106Z,9.53
2018-05-03T09:34:35.525Z,11.10
2018-05-03T09:37:03.179Z,9.70
2018-05-03T09:39:30.551Z,11.97
2018-05-03T09:41:57.874Z,12.20
2018-05-03T09:44:25.296Z,9.20
2018-05-03T09:46:56.234Z,13.50
2018-05-03T09:49:23.614Z,12.93
2018-05-03T09:51:51.697Z,15.33
2018-05-03T09:54:19.123Z,11.87
2018-05-03T09:56:47.191Z,9.77
2018-05-03T09:59:14.634Z,14.13
2018-05-03T10:01:41.998Z,10.10
2018-05-03T10:04:09.645Z,16.90
2018-05-03T10:06:37.029Z,14.57
2018-05-03T10:09:04.609Z,10.40
2018-05-03T10:11:32.043Z,11.87
2018-05-03T10:13:59.487Z,9.70
2018-05-03T10:16:28.588Z,12.43
2018-05-03T10:21:28.339Z,11.63
2018-05-03T10:26:27.783Z,16.43
2018-05-03T10:28:55.505Z,9.80
2018-05-03T10:31:26.413Z,11.27
2018-05-03T10:36:25.490Z,14.60
2018-05-03T10:38:53.751Z,16.03
2018-05-03T10:41:21.373Z,13.00
2018-05-03T10:43:48.903Z,12.13
2018-05-03T10:46:17.223Z,13.27
2018-05-03T10:48:44.811Z,18.93
2018-05-03T10:51:12.256Z,13.80
2018-05-03T10:53:39.667Z,10.47
2018-05-03T10:56:07.126Z,12.03
2018-05-03T10:58:34.567Z,15.90
2018-05-03T11:01:02.012Z,17.60
2018-05-03T11:03:29.404Z,24.43
2018-05-03T11:05:56.806Z,18.47
2018-05-03T11:08:26.221Z,15.07
2018-05-03T11:10:53.610Z,13.10
2018-05-03T11:13:22.090Z,11.57
2018-05-03T11:15:49.580Z,16.60
2018-05-03T11:18:17.819Z,13.33
2018-05-03T11:20:45.716Z,15.40
2018-05-03T11:25:44.613Z,17.53
2018-05-03T11:28:12.861Z,13.17
2018-05-03T11:30:40.291Z,23.03
2018-05-03T11:33:07.900Z,18.27
2018-05-03T11:35:35.441Z,18.00
2018-05-03T11:38:02.753Z,12.57
2018-05-03T11:43:03.027Z,10.53
2018-05-03T11:45:30.765Z,12.17
2018-05-03T11:47:58.732Z,22.27
2018-05-03T11:50:26.064Z,20.73
2018-05-03T11:52:53.422Z,11.33
2018-05-03T11:55:20.849Z,17.87
2018-05-03T11:57:48.430Z,16.87
2018-05-03T12:00:16.303Z,17.67
2018-05-03T12:02:43.693Z,20.73
2018-05-03T12:05:11.045Z,24.80
2018-05-03T12:07:38.742Z,13.30
2018-05-03T12:10:06.396Z,13.70
2018-05-03T12:12:33.933Z,15.53
2018-05-03T12:15:01.474Z,11.80
2018-05-03T12:17:28.910Z,18.20
2018-05-03T12:19:56.975Z,15.87
2018-05-03T12:22:24.424Z,19.67
2018-05-03T12:24:52.022Z,15.10
2018-05-03T12:27:19.602Z,21.33
2018-05-03T12:29:47.186Z,20.23
2018-05-03T12:32:15.058Z,13.23
2018-05-03T12:34:42.434Z,11.33
2018-05-03T12:37:13.234Z,14.13
2018-05-03T12:39:41.011Z,13.97
2018-05-03T12:44:40.306Z,13.13
2018-05-03T12:47:09.559Z,28.43
2018-05-03T12:49:40.584Z,12.33
2018-05-03T12:52:09.840Z,13.20
2018-05-03T12:54:37.333Z,12.77
2018-05-03T12:57:04.660Z,10.90
2018-05-03T12:59:32.096Z,15.87
2018-05-03T13:01:59.886Z,13.83
2018-05-03T13:04:27.291Z,10.77
2018-05-03T13:06:54.867Z,15.17
2018-05-03T13:09:22.296Z,15.03
2018-05-03T13:11:50.471Z,13.43
2018-05-03T13:16:49.976Z,24.60
2018-05-03T13:19:17.477Z,12.30
2018-05-03T13:21:45.113Z,14.03
2018-05-03T13:24:15.991Z,12.87
2018-05-03T13:26:44.185Z,19.60
2018-05-03T13:29:11.679Z,17.53
2018-05-03T13:34:10.886Z,19.07
2018-05-03T13:36:38.267Z,19.00
2018-05-03T13:39:06.042Z,18.87
2018-05-03T13:41:33.723Z,16.70
2018-05-03T13:44:04.677Z,13.47
2018-05-03T13:46:32.069Z,16.97
2018-05-03T13:48:59.508Z,13.17
2018-05-03T13:56:30.501Z,14.00
2018-05-03T13:58:57.955Z,12.90
2018-05-03T14:01:25.364Z,14.50
2018-05-03T14:03:52.847Z,16.67
2018-05-03T14:08:52.208Z,19.70
2018-05-03T14:11:19.584Z,12.57
2018-05-03T14:13:47.239Z,12.60
2018-05-03T14:18:49.496Z,13.70
2018-05-03T14:21:17.331Z,11.83
2018-05-03T14:23:44.729Z,13.07
2018-05-03T14:28:45.023Z,11.77
2018-05-03T14:31:12.384Z,15.07
2018-05-03T14:33:39.749Z,14.57
2018-05-03T14:36:07.088Z,13.47
2018-05-03T14:43:38.226Z,18.53
2018-05-03T14:46:05.697Z,15.83
2018-05-03T14:48:33.096Z,13.87
2018-05-03T14:51:00.442Z,21.03
2018-05-03T14:53:28.005Z,16.90
2018-05-03T14:55:56.002Z,20.43
2018-05-03T14:58:25.324Z,15.43
2018-05-03T15:03:30.655Z,19.77
2018-05-03T15:06:07.019Z,24.63
2018-05-03T15:08:34.408Z,22.47
2018-05-03T15:11:01.831Z,21.83
2018-05-03T15:16:01.594Z,22.77
2018-05-03T15:18:28.989Z,21.60
2018-05-03T15:20:58.220Z,19.20
2018-05-03T15:23:26.151Z,31.97
2018-05-03T15:25:53.834Z,19.23
2018-05-03T15:28:21.388Z,23.23
2018-05-03T15:30:49.306Z,23.77
2018-05-03T15:33:19.228Z,26.90
2018-05-03T15:38:18.861Z,26.83
2018-05-03T15:40:46.242Z,26.47
2018-05-03T15:43:13.906Z,26.17
2018-05-03T15:45:41.338Z,44.63
2018-05-03T15:48:09.652Z,27.93
2018-05-03T15:50:37.247Z,36.17
2018-05-03T15:53:05.030Z,37.60
2018-05-03T15:55:33.130Z,29.07
2018-05-03T15:58:00.827Z,33.07
2018-05-03T16:00:28.439Z,32.57
2018-05-03T16:05:28.231Z,41.83
2018-05-03T16:07:55.835Z,38.53
2018-05-03T16:10:23.220Z,40.70
2018-05-03T16:12:50.835Z,44.57
2018-05-03T16:15:18.467Z,36.50
2018-05-03T16:17:46.164Z,41.67
2018-05-03T16:20:13.877Z,33.97
2018-05-03T16:35:58.879Z,33.77
2018-05-03T16:38:36.640Z,35.53
2018-05-03T16:48:42.206Z,35.43
2018-05-03T16:51:10.385Z,40.08
2018-05-03T16:53:37.883Z,35.53
2018-05-03T16:56:05.297Z,28.27
2018-05-03T17:06:16.490Z,33.73
2018-05-03T17:08:44.368Z,35.67
2018-05-03T17:16:16.808Z,33.33
2018-05-03T17:18:44.239Z,36.23
2018-05-03T17:21:12.481Z,35.13
2018-05-03T17:23:39.911Z,35.60
2018-05-03T17:26:07.271Z,32.20
2018-05-03T17:28:35.191Z,27.30
2018-05-03T17:31:02.897Z,39.47
2018-05-03T17:33:30.334Z,23.50
2018-05-03T17:36:01.241Z,22.03
2018-05-03T17:43:34.117Z,34.47
2018-05-03T17:48:33.285Z,25.63
2018-05-03T17:51:00.727Z,32.20
2018-05-03T17:55:59.755Z,24.73
2018-05-03T18:03:33.007Z,31.87
2018-05-03T18:06:00.448Z,23.07
2018-05-03T18:08:28.320Z,25.50
2018-05-03T18:10:56.411Z,27.13
2018-05-03T18:13:23.967Z,26.50
2018-05-03T18:15:51.278Z,30.93
2018-05-03T18:18:19.698Z,23.80
2018-05-03T18:20:47.107Z,24.63
2018-05-03T18:28:28.152Z,22.73
2018-05-03T18:30:55.670Z,26.77
2018-05-03T18:33:24.270Z,34.90
2018-05-03T18:35:52.468Z,24.97
2018-05-03T18:38:20.044Z,20.57
2018-05-03T18:48:59.684Z,26.83
2018-05-03T18:51:27.322Z,23.20
2018-05-03T18:56:29.895Z,27.63
2018-05-03T18:58:57.986Z,25.90
2018-05-03T19:04:22.603Z,25.23
2018-05-03T19:06:49.992Z,17.20
2018-05-03T19:09:17.398Z,21.63
2018-05-03T19:11:44.882Z,20.33
2018-05-03T19:16:59.264Z,19.10
2018-05-03T19:19:26.744Z,24.90
2018-05-03T19:21:55.667Z,18.20
2018-05-03T19:30:06.106Z,20.30
2018-05-03T19:35:07.598Z,17.00
2018-05-03T19:37:35.568Z,21.03
2018-05-03T19:45:14.162Z,20.77
2018-05-03T19:47:42.108Z,19.03
2018-05-03T19:50:09.467Z,16.80
2018-05-03T19:52:36.798Z,39.23
2018-05-03T19:55:04.290Z,18.10
2018-05-03T20:00:05.160Z,21.90
2018-05-03T20:10:13.168Z,17.57
2018-05-03T20:15:13.478Z,22.43
2018-05-03T20:17:44.560Z,18.97
2018-05-03T20:20:12.025Z,15.77
2018-05-03T20:25:10.982Z,18.27
2018-05-03T20:27:38.688Z,24.03
2018-05-03T20:30:06.400Z,19.30
2018-05-03T20:32:33.740Z,20.43
2018-05-03T20:35:01.464Z,20.17
2018-05-03T20:40:00.660Z,25.70
2018-05-03T20:42:28.067Z,24.20
2018-05-03T20:44:59.099Z,22.30
2018-05-03T20:47:28.172Z,34.47
2018-05-03T20:49:55.459Z,22.23
2018-05-03T20:52:23.174Z,26.13
2018-05-03T20:54:50.894Z,27.63
2018-05-03T20:57:18.524Z,28.00
2018-05-03T20:59:46.044Z,24.13
2018-05-03T21:02:13.412Z,29.90
2018-05-03T21:07:14.096Z,22.90
2018-05-03T21:12:44.732Z,25.10
2018-05-03T21:15:13.962Z,23.60
2018-05-03T21:17:46.644Z,19.97
2018-05-03T21:20:14.002Z,26.10
2018-05-03T21:22:41.545Z,24.27
2018-05-03T21:25:10.125Z,22.60
2018-05-03T21:30:12.886Z,27.83
2018-05-03T21:32:40.263Z,28.03
2018-05-03T21:35:10.137Z,21.23
2018-05-03T21:40:15.622Z,23.30
2018-05-03T21:42:43.066Z,25.07
2018-05-03T21:47:44.410Z,44.73
2018-05-03T21:50:12.023Z,23.03
2018-05-03T21:52:39.609Z,25.70
2018-05-03T21:57:45.641Z,20.30
2018-05-03T22:00:13.085Z,25.40
2018-05-03T22:02:40.525Z,35.77
2018-05-03T22:05:07.838Z,24.43
2018-05-03T22:07:35.162Z,23.37
2018-05-03T22:10:03.713Z,29.33
2018-05-03T22:12:31.147Z,24.73
2018-05-03T22:15:00.269Z,27.37
2018-05-03T22:17:27.852Z,24.57
2018-05-03T22:19:56.883Z,25.50
2018-05-03T22:22:24.194Z,23.40
2018-05-03T22:24:51.512Z,20.40
2018-05-03T22:27:18.808Z,25.50
2018-05-03T22:29:47.399Z,26.13
2018-05-03T22:32:15.055Z,26.33
2018-05-03T22:34:42.480Z,30.40
2018-05-03T22:39:42.744Z,28.83
2018-05-03T22:42:10.049Z,28.30
2018-05-03T22:44:37.374Z,21.13
2018-05-03T22:47:04.679Z,31.47
2018-05-03T22:49:32.114Z,28.50
2018-05-03T22:51:59.516Z,22.30
2018-05-03T22:54:27.462Z,23.53
2018-05-03T22:56:54.976Z,25.63
2018-05-03T22:59:22.332Z,28.73
2018-05-03T23:01:49.636Z,26.60
2018-05-03T23:04:17.080Z,26.73
2018-05-03T23:06:44.635Z,24.83
2018-05-03T23:09:11.977Z,21.90
2018-05-03T23:11:39.335Z,31.03
2018-05-03T23:14:06.720Z,23.03
2018-05-03T23:16:36.134Z,28.80
2018-05-03T23:19:03.755Z,19.83
2018-05-03T23:21:31.324Z,25.63
2018-05-03T23:24:01.436Z,19.67
2018-05-03T23:26:29.056Z,19.50
2018-05-03T23:28:56.428Z,28.50
2018-05-03T23:31:24.011Z,25.40
2018-05-03T23:33:51.401Z,21.50
2018-05-03T23:36:18.774Z,19.37
2018-05-03T23:38:46.740Z,22.00
2018-05-03T23:41:14.120Z,18.73
2018-05-03T23:43:41.744Z,24.77
2018-05-03T23:46:09.043Z,22.17
2018-05-03T23:48:37.393Z,23.63
2018-05-03T23:51:04.699Z,19.03
2018-05-03T23:53:32.072Z,25.37
2018-05-03T23:55:59.484Z,18.67
2018-05-03T23:58:26.903Z,17.40
